Time;durP1;ratioP1;P1;durP2;ratioP2;P2;SDS_P1;SDS_P2;PMS_P1;PMS_P2;Temp;Humidity;BMP_temperature;BMP_pressure;BME280_temperature;BME280_humidity;BME280_pressure;Samples;Min_cycle;Max_cycle;Signal;HPM_P1;HPM_P2
2022/11/01 00:01:53;;;;;;;;;4.20;4.20;;;;;21.68;37.14;99347.94;5032840;28;45431;-72
2022/11/01 00:04:19;;;;;;;;;8.75;3.75;;;;;21.65;37.17;99355.41;5033498;28;45848;-72
2022/11/01 00:06:45;;;;;;;;;7.00;5.00;;;;;21.63;37.48;99350.16;5044610;28;46869;-72
2022/11/01 00:09:11;;;;;;;;;7.50;6.00;;;;;21.62;37.79;99344.94;5040928;28;45361;-72
2022/11/01 00:11:37;;;;;;;;;6.25;6.25;;;;;21.59;37.57;99343.34;5036857;28;45639;-72
2022/11/01 00:14:03;;;;;;;;;8.00;5.75;;;;;21.58;38.04;99350.56;5036095;28;45244;-72
2022/11/01 00:16:29;;;;;;;;;7.00;6.00;;;;;21.56;37.93;99333.72;5034774;28;45454;-72
2022/11/01 00:18:55;;;;;;;;;7.50;6.25;;;;;21.54;37.85;99329.44;5034736;28;45448;-72
2022/11/01 00:21:20;;;;;;;;;6.50;6.00;;;;;21.52;38.11;99326.88;5036374;28;45483;-72
2022/11/01 00:23:46;;;;;;;;;8.00;7.00;;;;;21.50;37.99;99317.25;5042953;28;45471;-72
2022/11/01 00:26:18;;;;;;;;;7.00;4.00;;;;;21.50;37.99;99328.84;5036346;28;47285;-72
2022/11/01 00:28:44;;;;;;;;;9.00;4.20;;;;;21.49;38.35;99321.78;5041761;28;45186;-72
2022/11/01 00:31:11;;;;;;;;;6.00;5.20;;;;;21.47;38.33;99315.66;5040706;28;45543;-72
2022/11/01 00:33:37;;;;;;;;;3.75;3.75;;;;;21.49;39.11;99316.41;5042678;28;45404;-73
2022/11/01 00:36:03;;;;;;;;;5.00;4.00;;;;;21.51;38.86;99311.78;5034718;28;45713;-72
2022/11/01 00:38:28;;;;;;;;;6.50;6.00;;;;;21.53;38.96;99309.81;5024060;28;45486;-72
2022/11/01 00:40:54;;;;;;;;;2.00;2.00;;;;;21.53;39.49;99311.66;5040461;28;45384;-73
2022/11/01 00:43:20;;;;;;;;;8.50;5.00;;;;;21.53;38.32;99311.66;5032232;28;45521;-72
2022/11/01 00:45:46;;;;;;;;;6.75;6.75;;;;;21.52;38.92;99318.84;5033129;28;45467;-72
2022/11/01 00:48:12;;;;;;;;;6.00;4.75;;;;;21.52;39.23;99315.31;5032272;28;45428;-72
2022/11/01 00:50:38;;;;;;;;;4.75;4.00;;;;;21.51;38.83;99311.78;5046082;28;45419;-73
2022/11/01 00:53:03;;;;;;;;;6.75;4.50;;;;;21.54;39.21;99310.66;5035242;28;45424;-73
2022/11/01 00:55:29;;;;;;;;;6.00;5.00;;;;;21.53;39.35;99304.44;5033755;28;47032;-71
2022/11/01 00:57:54;;;;;;;;;6.00;5.00;;;;;21.55;39.33;99307.00;5037770;28;45431;-73
2022/11/01 01:00:20;;;;;;;;;6.00;4.00;;;;;21.56;39.05;99303.34;5040430;28;45468;-72
2022/11/01 01:02:45;;;;;;;;;9.25;4.25;;;;;21.59;39.11;99303.09;5028159;28;45481;-73
2022/11/01 01:05:11;;;;;;;;;5.00;4.00;;;;;21.61;38.39;99311.03;5034696;28;46563;-71
2022/11/01 01:07:36;;;;;;;;;5.50;4.25;;;;;21.63;38.61;99312.59;5028003;28;45435;-71
2022/11/01 01:10:04;;;;;;;;;5.75;3.75;;;;;21.66;38.41;99323.06;5034714;28;45523;-71
2022/11/01 01:12:30;;;;;;;;;6.00;6.00;;;;;21.68;37.79;99328.31;5031057;28;45535;-72
2022/11/01 01:14:55;;;;;;;;;9.00;4.00;;;;;21.71;38.32;99346.84;5032834;28;47264;-72
2022/11/01 01:17:21;;;;;;;;;4.50;4.50;;;;;21.73;37.89;99361.00;5030896;28;45442;-72
2022/11/01 01:19:46;;;;;;;;;11.50;7.50;;;;;21.56;47.12;99363.22;5033439;28;45412;-72
2022/11/01 01:22:12;;;;;;;;;10.50;9.25;;;;;21.11;48.96;99354.34;5037777;28;45999;-71
2022/11/01 01:24:43;;;;;;;;;9.75;6.25;;;;;20.68;51.33;99356.88;5035245;28;46484;-72
2022/11/01 01:27:09;;;;;;;;;14.20;9.20;;;;;20.28;52.54;99353.69;5039475;28;45496;-72
2022/11/01 01:29:36;;;;;;;;;11.75;8.00;;;;;19.88;54.38;99353.19;5028599;28;45410;-72
2022/11/01 01:32:02;;;;;;;;;12.25;10.50;;;;;19.61;56.88;99374.78;5029729;28;45469;-72
2022/11/01 01:34:27;;;;;;;;;11.75;9.00;;;;;19.34;59.96;99377.59;5028295;28;46267;-72
2022/11/01 01:36:52;;;;;;;;;14.75;11.00;;;;;19.08;64.97;99386.66;5032952;28;45470;-72
2022/11/01 01:39:18;;;;;;;;;10.75;10.75;;;;;18.74;67.11;99356.94;5040485;28;45443;-72
2022/11/01 01:41:55;;;;;;;;;9.25;8.50;;;;;18.74;63.39;99389.00;5034018;28;45547;-72
2022/11/01 01:45:02;;;;;;;;;12.50;12.00;;;;;18.47;65.08;99377.50;5033958;28;45434;-72
2022/11/01 01:47:28;;;;;;;;;8.00;7.50;;;;;18.16;70.24;99378.72;4996999;28;45545;-72
2022/11/01 01:50:01;;;;;;;;;8.50;8.50;;;;;17.91;68.15;99376.00;5033962;28;45397;-72
2022/11/01 01:52:29;;;;;;;;;13.00;7.00;;;;;17.79;71.11;99417.63;5035118;28;45511;-72
2022/11/01 01:54:55;;;;;;;;;9.50;9.50;;;;;17.68;68.10;99421.00;5044037;28;45574;-72
2022/11/01 01:57:21;;;;;;;;;9.75;8.25;;;;;17.57;72.25;99439.47;5029659;28;45480;-72
2022/11/01 01:59:47;;;;;;;;;10.25;7.50;;;;;17.47;73.76;99435.66;5034076;28;45325;-73
2022/11/01 02:02:13;;;;;;;;;8.75;8.75;;;;;17.31;75.42;99451.75;5038197;28;45531;-73
2022/11/01 02:04:48;;;;;;;;;7.75;6.25;;;;;17.13;79.53;99468.03;5042853;28;47607;-72
2022/11/01 02:07:13;;;;;;;;;12.20;10.80;;;;;16.91;80.27;99532.41;5043200;28;45392;-73
2022/11/01 02:09:41;;;;;;;;;13.00;11.50;;;;;16.73;83.55;99487.28;5047811;28;45356;-74
2022/11/01 02:12:09;;;;;;;;;11.25;9.50;;;;;16.51;83.65;99491.25;5043985;28;45529;-74
2022/11/01 02:14:35;;;;;;;;;14.00;11.50;;;;;16.30;82.70;99504.00;5038862;28;45455;-75
2022/11/01 02:17:06;;;;;;;;;22.25;16.75;;;;;16.16;85.37;99504.78;5039523;28;45530;-75
2022/11/01 02:19:58;;;;;;;;;9.75;6.25;;;;;16.05;88.50;99531.16;5036170;28;45534;-74
2022/11/01 02:22:23;;;;;;;;;14.25;11.00;;;;;15.99;87.76;99527.00;5025660;28;45479;-74
2022/11/01 02:24:48;;;;;;;;;15.75;11.00;;;;;15.94;88.81;99538.84;5028321;28;45504;-75
2022/11/01 02:27:23;;;;;;;;;18.25;12.25;;;;;15.91;88.92;99531.06;5031594;28;45431;-75
2022/11/01 02:30:04;;;;;;;;;13.25;8.50;;;;;15.87;88.30;99558.75;5036972;28;45324;-75
2022/11/01 02:32:45;;;;;;;;;14.25;12.75;;;;;15.81;89.39;99565.25;5029754;28;45601;-75
2022/11/01 02:35:34;;;;;;;;;11.75;11.75;;;;;15.70;92.83;99576.47;5036984;28;45389;-74
2022/11/01 02:38:28;;;;;;;;;14.25;9.75;;;;;15.54;95.38;99595.94;5029974;28;45411;-74
2022/11/01 02:41:08;;;;;;;;;16.25;15.25;;;;;15.43;99.22;99612.44;5036291;28;45503;-74
2022/11/01 02:43:46;;;;;;;;;18.25;16.25;;;;;15.34;96.90;99624.41;5032248;28;45289;-75
2022/11/01 02:48:57;;;;;;;;;17.00;16.00;;;;;15.31;95.50;99655.59;5035414;28;45390;-74
2022/11/01 02:51:24;;;;;;;;;12.50;12.50;;;;;15.34;94.12;99660.75;5033939;28;45579;-74
2022/11/01 02:53:50;;;;;;;;;16.25;14.25;;;;;15.35;94.18;99659.81;5032035;28;45508;-74
2022/11/01 02:56:17;;;;;;;;;10.75;10.75;;;;;15.35;91.45;99657.16;5034547;28;48121;-74
2022/11/01 02:58:45;;;;;;;;;15.25;14.00;;;;;15.32;92.16;99658.16;5030009;28;45448;-76
2022/11/01 03:01:16;;;;;;;;;13.25;12.50;;;;;15.29;91.46;99654.78;5037038;28;45341;-75
2022/11/01 03:03:46;;;;;;;;;12.25;8.75;;;;;15.25;90.47;99659.41;5033328;28;45478;-75
2022/11/01 03:06:21;;;;;;;;;15.75;15.75;;;;;15.21;91.85;99654.34;5024605;28;45556;-75
2022/11/01 03:09:01;;;;;;;;;12.75;11.25;;;;;15.17;91.82;99650.13;5035234;28;45368;-75
2022/11/01 03:11:39;;;;;;;;;13.75;13.75;;;;;15.12;92.00;99653.00;5025395;28;45441;-75
2022/11/01 03:14:16;;;;;;;;;18.25;13.50;;;;;15.09;91.52;99666.41;5036114;28;45681;-75
2022/11/01 03:16:59;;;;;;;;;13.50;11.75;;;;;15.08;92.20;99669.19;5037785;28;45393;-75
2022/11/01 03:19:36;;;;;;;;;14.50;12.75;;;;;15.05;92.20;99683.47;5036033;28;45396;-75
2022/11/01 03:22:12;;;;;;;;;12.75;10.50;;;;;15.00;92.53;99678.38;5036740;28;45369;-75
2022/11/01 03:24:44;;;;;;;;;15.00;12.50;;;;;14.99;92.81;99681.97;5031765;28;45476;-75
2022/11/01 03:27:35;;;;;;;;;15.75;14.75;;;;;14.97;92.79;99680.31;5020955;28;46483;-75
2022/11/01 03:30:05;;;;;;;;;16.00;13.75;;;;;14.96;93.21;99689.22;5023609;28;45408;-75
2022/11/01 03:32:41;;;;;;;;;12.25;10.25;;;;;14.94;93.22;99691.94;5017673;28;45439;-75
2022/11/01 03:35:11;;;;;;;;;18.25;18.00;;;;;14.94;94.00;99693.72;5035916;28;45421;-75
2022/11/01 03:37:39;;;;;;;;;17.50;14.50;;;;;14.90;93.42;99687.72;5032947;28;45459;-75
2022/11/01 03:40:07;;;;;;;;;15.25;12.50;;;;;14.89;94.62;99682.50;5036283;28;45425;-75
2022/11/01 03:42:33;;;;;;;;;11.50;10.25;;;;;14.88;94.17;99691.38;5023676;28;45459;-75
2022/11/01 03:45:05;;;;;;;;;14.75;10.25;;;;;14.87;93.71;99687.00;5035124;28;45666;-75
2022/11/01 03:47:31;;;;;;;;;14.00;11.00;;;;;14.84;94.79;99685.38;5034722;28;45501;-75
2022/11/01 03:50:20;;;;;;;;;15.50;10.75;;;;;14.83;94.70;99680.13;5034648;28;45485;-75
2022/11/01 03:52:45;;;;;;;;;15.25;12.00;;;;;14.80;94.79;99681.13;5031372;28;45535;-75
2022/11/01 03:55:19;;;;;;;;;14.00;13.50;;;;;14.81;95.63;99697.91;5038522;28;45478;-75
2022/11/01 03:57:51;;;;;;;;;13.25;13.25;;;;;14.81;95.29;99724.47;5035300;28;45471;-75
2022/11/01 04:00:22;;;;;;;;;19.00;15.00;;;;;14.81;95.70;99735.94;5035483;28;45366;-75
2022/11/01 04:02:49;;;;;;;;;16.00;12.00;;;;;14.80;95.76;99741.31;5026639;28;45306;-75
2022/11/01 04:05:15;;;;;;;;;15.75;13.75;;;;;14.81;96.30;99735.09;5035798;28;45405;-75
2022/11/01 04:07:41;;;;;;;;;18.25;14.25;;;;;14.83;96.77;99726.13;5035207;28;45603;-75
2022/11/01 04:10:07;;;;;;;;;37.00;32.33;;;;;14.83;96.66;99720.81;5034144;28;45431;-75
2022/11/01 04:12:32;;;;;;;;;20.00;19.25;;;;;14.84;96.83;99716.34;5033076;28;45466;-75
2022/11/01 04:20:35;;;;;;;;;16.25;15.25;;;;;14.79;96.71;99705.94;5038347;28;45369;-75
2022/11/01 04:23:02;;;;;;;;;15.50;13.50;;;;;14.78;97.18;99706.88;5036051;28;45397;-75
2022/11/01 04:25:28;;;;;;;;;11.75;10.75;;;;;14.79;96.76;99707.75;5030453;28;45453;-75
2022/11/01 04:27:56;;;;;;;;;15.75;12.75;;;;;14.78;96.87;99719.28;5030187;28;45428;-75
2022/11/01 04:30:26;;;;;;;;;34.00;30.00;;;;;14.77;97.45;99723.75;5034563;28;46125;-75
2022/11/01 04:32:52;;;;;;;;;17.00;13.75;;;;;14.77;97.89;99722.88;5024815;28;45516;-75
2022/11/01 04:35:17;;;;;;;;;14.75;13.75;;;;;14.79;98.23;99728.97;5039291;28;45407;-75
2022/11/01 04:37:43;;;;;;;;;16.50;12.50;;;;;14.80;98.28;99730.69;5034769;28;46168;-74
2022/11/01 04:40:09;;;;;;;;;13.75;13.75;;;;;14.80;98.43;99725.41;5035089;28;45505;-75
2022/11/01 04:42:36;;;;;;;;;12.50;12.25;;;;;14.83;98.69;99733.22;5028572;28;45512;-75
2022/11/01 04:45:06;;;;;;;;;14.00;12.25;;;;;14.86;98.72;99735.72;5035216;28;45579;-75
2022/11/01 04:47:31;;;;;;;;;17.75;14.25;;;;;14.85;98.58;99740.19;5035003;28;45484;-75
2022/11/01 04:49:57;;;;;;;;;17.75;14.00;;;;;14.84;98.08;99735.81;5034818;28;45468;-75
2022/11/01 04:52:22;;;;;;;;;16.75;14.00;;;;;14.83;98.28;99739.38;5032693;28;45353;-75
2022/11/01 04:54:48;;;;;;;;;15.25;12.75;;;;;14.82;98.63;99740.31;5035050;28;45450;-75
2022/11/01 04:57:23;;;;;;;;;16.75;14.25;;;;;14.81;98.71;99735.09;5034337;28;45572;-75
2022/11/01 04:59:52;;;;;;;;;13.50;12.00;;;;;14.79;98.82;99735.16;5035238;28;45504;-75
2022/11/01 05:02:19;;;;;;;;;22.25;13.50;;;;;14.80;99.15;99739.53;5034583;28;45505;-75
2022/11/01 05:04:44;;;;;;;;;13.75;12.00;;;;;14.79;99.27;99736.94;5035071;28;45561;-75
2022/11/01 05:07:10;;;;;;;;;13.25;11.25;;;;;14.79;98.96;99732.50;5033002;28;45820;-75
2022/11/01 05:09:36;;;;;;;;;15.50;13.75;;;;;14.79;99.14;99727.19;5035071;28;45443;-75
2022/11/01 05:12:01;;;;;;;;;13.00;12.25;;;;;14.78;99.46;99725.47;5032523;28;45428;-75
2022/11/01 05:14:27;;;;;;;;;19.25;15.75;;;;;14.78;99.54;99727.25;5038034;28;45486;-75
2022/11/01 05:16:56;;;;;;;;;14.00;12.75;;;;;14.78;99.33;99724.59;5028152;28;45442;-75
2022/11/01 05:19:22;;;;;;;;;17.50;17.50;;;;;14.77;99.32;99728.19;5033363;28;45476;-75
2022/11/01 05:21:47;;;;;;;;;18.00;14.50;;;;;14.74;99.30;99715.94;5024313;28;45583;-75
2022/11/01 05:24:13;;;;;;;;;17.00;14.00;;;;;14.75;99.69;99716.78;5034780;28;45383;-75
2022/11/01 05:26:38;;;;;;;;;16.50;15.25;;;;;14.74;100.00;99715.94;5022919;28;46156;-75
2022/11/01 05:29:04;;;;;;;;;16.75;12.25;;;;;14.75;100.00;99717.63;5035069;28;45487;-75
2022/11/01 05:31:29;;;;;;;;;15.00;12.75;;;;;14.76;100.00;99719.38;5020789;28;45559;-75
2022/11/01 05:33:55;;;;;;;;;18.00;15.25;;;;;14.77;100.00;99717.56;5036680;28;45943;-75
2022/11/01 05:36:20;;;;;;;;;13.50;13.25;;;;;14.74;100.00;99718.59;5029032;28;46325;-75
2022/11/01 05:38:45;;;;;;;;;18.00;15.50;;;;;14.76;99.88;99715.84;5030099;28;45423;-75
2022/11/01 05:41:11;;;;;;;;;18.00;12.75;;;;;14.75;100.00;99716.78;5045112;28;45698;-75
2022/11/01 05:43:36;;;;;;;;;16.75;12.00;;;;;14.73;100.00;99716.88;5049166;28;45270;-75
2022/11/01 05:46:06;;;;;;;;;16.75;13.25;;;;;14.74;100.00;99718.59;5033037;28;47493;-75
2022/11/01 05:48:32;;;;;;;;;17.00;14.50;;;;;14.73;100.00;99719.53;5025826;28;45476;-74
2022/11/01 05:50:57;;;;;;;;;14.25;13.00;;;;;14.72;100.00;99724.91;5033142;28;45505;-75
2022/11/01 05:53:22;;;;;;;;;18.25;15.75;;;;;14.72;100.00;99732.88;5033062;28;45533;-75
2022/11/01 05:55:48;;;;;;;;;16.00;15.25;;;;;14.71;100.00;99737.31;5034297;28;46484;-75
2022/11/01 05:58:13;;;;;;;;;14.50;13.50;;;;;14.70;100.00;99726.78;5023436;28;45456;-75
2022/11/01 06:00:39;;;;;;;;;18.00;15.25;;;;;14.69;100.00;99731.22;5032528;28;45369;-75
2022/11/01 06:03:05;;;;;;;;;15.00;14.00;;;;;14.70;100.00;99732.94;5032784;28;45302;-75
2022/11/01 06:05:30;;;;;;;;;16.75;15.75;;;;;14.69;100.00;99733.88;5032711;28;47322;-75
2022/11/01 06:07:59;;;;;;;;;17.50;14.50;;;;;14.72;100.00;99735.53;5034039;28;45513;-75
2022/11/01 06:10:24;;;;;;;;;18.00;16.00;;;;;14.73;100.00;99732.81;5032836;28;45457;-75
2022/11/01 06:12:50;;;;;;;;;14.00;13.00;;;;;14.74;100.00;99738.97;5032289;28;45633;-75
2022/11/01 06:15:15;;;;;;;;;14.25;12.75;;;;;14.74;100.00;99731.00;5041383;28;46279;-75
2022/11/01 06:17:41;;;;;;;;;16.75;14.50;;;;;14.74;100.00;99731.88;5030726;28;45465;-75
2022/11/01 06:20:06;;;;;;;;;13.75;12.50;;;;;14.76;100.00;99729.97;5030621;28;45423;-75
2022/11/01 06:22:35;;;;;;;;;22.00;15.25;;;;;14.76;100.00;99724.66;5029639;28;45595;-74
2022/11/01 06:25:00;;;;;;;;;13.50;11.75;;;;;14.79;100.00;99723.66;5027468;28;48021;-75
2022/11/01 06:27:27;;;;;;;;;14.50;13.75;;;;;14.80;100.00;99714.78;5028359;28;45297;-75
2022/11/01 06:29:52;;;;;;;;;24.00;16.50;;;;;14.81;100.00;99712.06;5033609;28;45361;-75
2022/11/01 06:32:17;;;;;;;;;20.75;16.00;;;;;14.82;100.00;99721.75;5033156;28;45520;-75
2022/11/01 06:34:43;;;;;;;;;16.75;16.00;;;;;14.83;100.00;99722.59;5033718;28;45465;-75
2022/11/01 06:37:08;;;;;;;;;17.25;15.50;;;;;14.84;100.00;99724.31;5032634;28;45827;-75
2022/11/01 06:39:33;;;;;;;;;19.25;18.50;;;;;14.83;100.00;99723.47;5029274;28;45606;-75
2022/11/01 06:41:59;;;;;;;;;14.75;13.50;;;;;14.82;100.00;99732.34;5032861;28;45435;-75
2022/11/01 06:44:24;;;;;;;;;19.75;16.25;;;;;14.83;100.00;99728.78;5030028;28;45642;-75
2022/11/01 06:46:50;;;;;;;;;16.50;14.50;;;;;14.84;100.00;99733.16;5031925;28;45463;-75
2022/11/01 06:49:15;;;;;;;;;15.75;13.50;;;;;14.86;100.00;99743.69;5033555;28;45938;-75
2022/11/01 06:51:40;;;;;;;;;19.25;17.75;;;;;14.86;100.00;99751.66;5030276;28;45472;-74
2022/11/01 06:54:06;;;;;;;;;15.50;11.75;;;;;14.86;100.00;99751.66;5040384;28;48019;-74
2022/11/01 06:56:31;;;;;;;;;19.25;16.50;;;;;14.85;100.00;99758.75;5034945;28;45812;-75
2022/11/01 06:58:56;;;;;;;;;19.75;18.50;;;;;14.85;100.00;99771.19;5035283;28;45491;-75
2022/11/01 07:01:23;;;;;;;;;15.75;15.75;;;;;14.86;100.00;99767.59;5028997;28;45517;-75
2022/11/01 07:03:50;;;;;;;;;18.00;15.75;;;;;14.86;100.00;99768.44;5042128;28;46191;-75
2022/11/01 07:06:17;;;;;;;;;20.75;17.25;;;;;14.90;100.00;99774.47;5035483;28;45441;-65
2022/11/01 07:08:42;;;;;;;;;15.25;14.00;;;;;14.93;100.00;99782.28;5033688;28;45498;-69
2022/11/01 07:11:08;;;;;;;;;20.75;16.25;;;;;14.97;100.00;99776.75;5021313;28;45699;-68
2022/11/01 07:13:35;;;;;;;;;13.00;10.75;;;;;15.01;100.00;99782.78;5040556;28;46251;-70
2022/11/01 07:16:03;;;;;;;;;19.00;13.75;;;;;15.04;100.00;99785.31;5033608;28;45450;-68
2022/11/01 07:18:29;;;;;;;;;19.75;17.00;;;;;15.06;100.00;99790.53;5033062;28;45361;-70
2022/11/01 07:20:55;;;;;;;;;16.50;14.00;;;;;15.09;100.00;99791.22;5038252;28;45454;-69
2022/11/01 07:23:20;;;;;;;;;19.75;17.50;;;;;15.13;100.00;99789.31;5033521;28;45660;-69
2022/11/01 07:25:51;;;;;;;;;15.75;15.75;;;;;15.13;100.00;99790.16;5018109;28;45456;-68
2022/11/01 07:28:16;;;;;;;;;14.50;13.50;;;;;15.13;100.00;99790.16;5033892;28;45613;-69
2022/11/01 07:30:41;;;;;;;;;21.75;17.50;;;;;15.16;100.00;99790.03;5031149;28;45496;-68
2022/11/01 07:33:07;;;;;;;;;15.25;12.50;;;;;15.17;100.00;99783.78;5030097;28;47939;-70
2022/11/01 07:35:34;;;;;;;;;19.50;13.75;;;;;15.19;100.00;99787.22;5034955;28;45486;-69
2022/11/01 07:38:00;;;;;;;;;17.00;16.00;;;;;15.19;100.00;99778.41;5033163;28;45437;-69
2022/11/01 07:40:26;;;;;;;;;19.50;17.50;;;;;15.22;100.00;99788.88;5024889;28;45508;-70
2022/11/01 07:43:02;;;;;;;;;15.75;14.25;;;;;15.23;100.00;99787.94;5042210;28;46411;-69
2022/11/01 07:45:30;;;;;;;;;20.25;18.00;;;;;15.25;100.00;99794.00;5038715;28;45530;-70
2022/11/01 07:48:03;;;;;;;;;18.00;17.00;;;;;15.28;100.00;99802.69;5037749;28;45421;-69
2022/11/01 07:50:30;;;;;;;;;20.25;15.75;;;;;15.29;100.00;99800.91;5048182;28;45511;-69
2022/11/01 07:53:10;;;;;;;;;14.25;13.75;;;;;15.31;100.00;99809.66;5021567;28;47153;-69
2022/11/01 07:55:36;;;;;;;;;20.50;18.25;;;;;15.32;100.00;99814.91;5034528;28;45498;-69
2022/11/01 07:58:03;;;;;;;;;16.00;15.75;;;;;15.33;100.00;99813.13;5035697;28;45523;-69
2022/11/01 08:00:29;;;;;;;;;18.75;18.00;;;;;15.36;100.00;99823.59;5038556;28;45447;-69
2022/11/01 08:03:09;;;;;;;;;16.75;16.75;;;;;15.38;100.00;99828.84;5038883;28;45518;-68
2022/11/01 08:05:36;;;;;;;;;12.50;10.75;;;;;15.38;100.00;99832.38;5046677;28;45179;-69
2022/11/01 08:08:02;;;;;;;;;20.75;20.00;;;;;15.40;100.00;99837.59;5035165;28;45453;-69
2022/11/01 08:10:28;;;;;;;;;16.25;15.25;;;;;15.40;100.00;99841.13;5038170;28;45457;-69
2022/11/01 08:13:06;;;;;;;;;18.00;16.50;;;;;15.43;100.00;99840.09;5036231;28;48278;-68
2022/11/01 08:15:33;;;;;;;;;17.50;15.75;;;;;15.41;100.00;99837.53;5034692;28;45528;-70
2022/11/01 08:17:58;;;;;;;;;15.50;15.25;;;;;15.40;100.00;99845.56;5035287;28;45500;-70
2022/11/01 08:20:26;;;;;;;;;16.50;15.50;;;;;15.40;100.00;99845.56;5035406;28;45404;-69
2022/11/01 08:22:52;;;;;;;;;20.25;14.50;;;;;15.39;100.00;99851.81;5036834;28;46729;-69
2022/11/01 08:25:17;;;;;;;;;18.50;15.25;;;;;15.40;100.00;99851.75;5034015;28;45401;-69
2022/11/01 08:27:44;;;;;;;;;18.50;15.25;;;;;15.44;100.00;99855.97;5038438;28;45540;-69
2022/11/01 08:30:09;;;;;;;;;18.75;15.50;;;;;15.45;100.00;99849.72;5042182;28;45470;-69
2022/11/01 08:32:35;;;;;;;;;19.00;19.00;;;;;15.50;100.00;99854.81;5039224;28;47420;-69
2022/11/01 08:35:00;;;;;;;;;20.00;17.00;;;;;15.53;99.96;99859.97;5042432;28;45438;-69
2022/11/01 08:37:26;;;;;;;;;18.75;16.25;;;;;15.56;99.74;99862.53;5038373;28;45611;-70
2022/11/01 08:39:51;;;;;;;;;22.50;19.00;;;;;15.61;99.93;99865.81;5031334;28;45558;-66
2022/11/01 08:42:17;;;;;;;;;22.50;20.50;;;;;15.68;99.46;99854.81;5031613;28;45465;-67
2022/11/01 08:44:42;;;;;;;;;20.75;19.75;;;;;15.76;99.04;99853.56;5042863;28;45464;-66
2022/11/01 08:47:08;;;;;;;;;20.50;19.50;;;;;15.83;99.53;99850.53;5031490;28;45950;-66
2022/11/01 08:49:33;;;;;;;;;21.50;19.75;;;;;15.92;98.68;99854.53;5034471;28;45430;-66
2022/11/01 08:51:59;;;;;;;;;20.00;16.75;;;;;15.99;98.17;99847.97;5028583;28;45566;-67
2022/11/01 08:54:24;;;;;;;;;19.75;17.75;;;;;16.04;97.85;99843.28;5033181;28;45348;-67
2022/11/01 08:56:50;;;;;;;;;19.50;17.50;;;;;16.10;97.71;99842.94;5027835;28;45468;-67
2022/11/01 08:59:15;;;;;;;;;17.75;15.50;;;;;16.18;97.95;99832.78;5041000;28;45623;-67
2022/11/01 09:01:41;;;;;;;;;17.75;15.00;;;;;16.23;97.39;99832.56;5037135;28;45428;-67
2022/11/01 09:04:06;;;;;;;;;19.50;17.75;;;;;16.26;96.86;99835.03;5034426;28;45378;-67
2022/11/01 09:06:32;;;;;;;;;13.00;13.00;;;;;16.31;97.14;99835.66;5030119;28;45458;-66
2022/11/01 09:08:57;;;;;;;;;17.50;15.75;;;;;16.38;96.83;99840.59;5028219;28;45678;-66
2022/11/01 09:11:24;;;;;;;;;17.75;16.75;;;;;16.46;96.57;99847.31;5032625;28;46538;-65
2022/11/01 09:13:50;;;;;;;;;20.50;14.50;;;;;16.52;96.53;99847.84;5032640;28;45582;-65
2022/11/01 09:16:16;;;;;;;;;16.25;15.00;;;;;16.61;95.55;99841.16;5037181;28;45536;-65
2022/11/01 09:18:42;;;;;;;;;14.75;12.50;;;;;16.66;95.18;99832.03;5038645;28;45579;-65
2022/11/01 09:21:08;;;;;;;;;13.75;12.25;;;;;16.74;95.12;99843.16;5044352;28;46509;-65
2022/11/01 09:23:34;;;;;;;;;10.50;9.25;;;;;16.83;94.79;99844.44;5033489;28;45506;-65
2022/11/01 09:26:08;;;;;;;;;12.25;10.75;;;;;16.92;94.78;99851.09;5032239;28;45615;-66
2022/11/01 09:28:33;;;;;;;;;10.50;10.50;;;;;16.98;93.09;99856.06;5034386;28;45439;-65
2022/11/01 09:31:04;;;;;;;;;10.00;8.25;;;;;17.03;92.46;99848.69;5029020;28;46650;-65
2022/11/01 09:33:30;;;;;;;;;10.25;10.00;;;;;17.08;93.11;99852.81;5034291;28;45406;-65
2022/11/01 09:35:56;;;;;;;;;13.00;10.75;;;;;17.16;93.06;99843.53;5032251;28;45432;-65
2022/11/01 09:38:22;;;;;;;;;12.75;11.50;;;;;17.21;92.25;99844.16;5031373;28;45597;-65
2022/11/01 09:41:00;;;;;;;;;11.75;10.75;;;;;17.29;92.83;99847.22;5039638;28;45464;-65
2022/11/01 09:43:31;;;;;;;;;12.60;11.00;;;;;17.35;92.11;99839.75;5033201;28;45396;-66
2022/11/01 09:45:58;;;;;;;;;13.00;10.25;;;;;17.42;92.16;99848.28;5037705;28;45518;-66
2022/11/01 09:48:26;;;;;;;;;11.00;8.50;;;;;17.50;91.25;99851.34;5036665;28;45436;-66
2022/11/01 09:50:52;;;;;;;;;9.00;7.75;;;;;17.59;90.28;99848.19;5040940;28;45632;-65
2022/11/01 09:53:22;;;;;;;;;11.60;9.00;;;;;17.65;90.50;99853.19;5029199;28;45357;-66
2022/11/01 09:55:56;;;;;;;;;8.50;8.25;;;;;17.73;89.65;99840.28;5035933;28;45384;-67
2022/11/01 09:59:01;;;;;;;;;19.25;15.50;;;;;17.83;90.33;99837.91;5037979;28;45588;-67
2022/11/01 10:01:38;;;;;;;;;9.50;9.00;;;;;17.91;88.98;99849.03;5033002;28;47362;-67
2022/11/01 10:04:34;;;;;;;;;10.40;9.20;;;;;17.95;88.06;99853.19;5033138;28;45374;-67
2022/11/01 10:07:16;;;;;;;;;10.40;8.40;;;;;18.00;87.95;99859.13;5032982;28;45458;-68
2022/11/01 10:10:16;;;;;;;;;12.75;12.00;;;;;18.06;87.66;99861.47;5036093;28;45504;-68
2022/11/01 10:13:12;;;;;;;;;12.25;10.25;;;;;18.12;88.05;99866.41;5024229;28;45546;-67
2022/11/01 10:15:49;;;;;;;;;10.00;10.00;;;;;18.21;87.62;99865.03;5035130;28;45506;-67
2022/11/01 10:18:53;;;;;;;;;9.00;8.50;;;;;18.23;86.91;99865.78;5036005;28;45592;-68
2022/11/01 10:21:22;;;;;;;;;10.50;8.75;;;;;18.30;86.97;99869.81;5032653;28;46586;-69
2022/11/01 10:23:50;;;;;;;;;11.25;11.25;;;;;18.37;87.53;99856.97;5037083;28;46409;-67
2022/11/01 10:26:29;;;;;;;;;11.20;10.20;;;;;18.40;87.05;99867.44;5043509;28;45477;-67
2022/11/01 10:28:58;;;;;;;;;14.50;12.00;;;;;18.42;87.49;99870.91;5043518;28;45519;-68
2022/11/01 10:31:26;;;;;;;;;12.25;9.75;;;;;18.43;87.00;99869.94;5036371;28;45499;-68
2022/11/01 10:33:54;;;;;;;;;18.75;13.25;;;;;18.42;87.06;99869.09;5036392;28;45692;-68
2022/11/01 10:36:26;;;;;;;;;9.60;9.20;;;;;18.46;87.54;99867.91;5043422;28;45520;-68
2022/11/01 10:39:18;;;;;;;;;9.00;8.50;;;;;18.53;86.69;99862.22;5041803;28;45571;-69
2022/11/01 10:41:51;;;;;;;;;9.00;7.00;;;;;18.58;85.76;99861.00;5029479;28;45610;-68
2022/11/01 10:44:29;;;;;;;;;7.00;7.00;;;;;18.61;86.17;99860.81;5033037;28;46159;-68
2022/11/01 10:46:57;;;;;;;;;10.00;9.00;;;;;18.64;85.52;99857.09;5030933;28;45458;-68
2022/11/01 10:49:28;;;;;;;;;10.00;8.00;;;;;18.69;86.07;99852.34;5034291;28;45312;-68
2022/11/01 10:51:59;;;;;;;;;15.00;13.00;;;;;18.75;85.59;99863.53;5033376;28;45591;-68
2022/11/01 10:54:29;;;;;;;;;11.80;10.20;;;;;18.85;85.50;99861.13;5034922;28;45573;-68
2022/11/01 10:57:00;;;;;;;;;9.20;9.20;;;;;18.95;86.43;99854.25;5028909;28;45443;-68
2022/11/01 10:59:39;;;;;;;;;10.50;10.50;;;;;19.06;85.67;99858.94;5036336;28;45515;-69
2022/11/01 11:02:30;;;;;;;;;10.50;10.00;;;;;19.14;84.59;99853.94;5032246;28;45421;-69
2022/11/01 11:04:56;;;;;;;;;10.00;9.00;;;;;19.22;84.57;99856.16;5032228;28;46500;-68
2022/11/01 11:07:23;;;;;;;;;8.60;8.00;;;;;19.22;83.37;99854.34;5035246;28;45463;-68
2022/11/01 11:09:49;;;;;;;;;8.00;7.80;;;;;19.24;82.95;99846.22;5031311;28;45465;-69
2022/11/01 11:12:19;;;;;;;;;14.25;11.00;;;;;19.28;83.48;99837.88;5035068;28;45507;-68
2022/11/01 11:14:47;;;;;;;;;11.00;8.00;;;;;19.35;82.89;99847.22;5036098;28;46425;-68
2022/11/01 11:17:37;;;;;;;;;11.40;8.80;;;;;19.44;82.68;99845.75;5022875;28;45378;-69
2022/11/01 11:20:06;;;;;;;;;8.00;6.00;;;;;19.51;82.44;99839.09;5039615;28;45368;-70
2022/11/01 11:22:38;;;;;;;;;10.00;9.00;;;;;19.56;81.96;99837.00;5034690;28;45585;-70
2022/11/01 11:25:04;;;;;;;;;11.00;9.60;;;;;19.56;81.86;99828.97;5039307;28;47445;-68
2022/11/01 11:27:34;;;;;;;;;8.60;8.60;;;;;19.55;80.78;99835.28;5029763;28;45532;-69
2022/11/01 11:30:07;;;;;;;;;9.50;8.25;;;;;19.52;80.95;99827.44;5035230;28;45362;-69
2022/11/01 11:32:38;;;;;;;;;10.00;9.00;;;;;19.50;80.68;99824.00;5043139;28;45571;-69
2022/11/01 11:35:16;;;;;;;;;10.20;8.80;;;;;19.47;80.48;99822.34;5035578;28;46157;-69
2022/11/01 11:37:53;;;;;;;;;10.20;8.20;;;;;19.48;80.71;99812.53;5033710;28;45420;-69